Terminal Aerodrome Forecast
Issued by NWS Wakefield, VA

Home | Current Version | Previous Version | Text Only | Print | Product List | Glossary On
Versions: 1 2 3 4 5 6 7 8 9 10 11 12 13 14 15 16 17 18 19 20 21 22 23 24 25
000
FTUS41 KAKQ 191132
TAFSBY
TAF
KSBY 191132Z 1912/2012 07012KT P6SM SCT250
     FM191600 07012G22KT P6SM SCT150 BKN250
     FM192300 09012G22KT 5SM -RA BKN025 OVC100
     FM200300 12015G25KT 2SM RA BR OVC008=

USA.gov is the U.S. government's official web portal to all federal, state and local government web resources and services.